sensor_id;sensor_type;location;lat;lon;timestamp;P1;durP1;ratioP1;P2;durP2;ratioP2
13432;SDS011;6789;47.678;9.158;2024-01-11T00:03:06;40.10;;;14.83;;
13432;SDS011;6789;47.678;9.158;2024-01-11T00:07:57;36.03;;;14.23;;
13432;SDS011;6789;47.678;9.158;2024-01-11T00:12:49;34.23;;;14.07;;
13432;SDS011;6789;47.678;9.158;2024-01-11T00:17:41;35.40;;;14.17;;
13432;SDS011;6789;47.678;9.158;2024-01-11T00:22:33;36.97;;;14.43;;
13432;SDS011;6789;47.678;9.158;2024-01-11T00:27:25;38.23;;;15.10;;
13432;SDS011;6789;47.678;9.158;2024-01-11T00:32:16;35.27;;;14.50;;
13432;SDS011;6789;47.678;9.158;2024-01-11T00:37:09;38.57;;;15.63;;
13432;SDS011;6789;47.678;9.158;2024-01-11T00:42:00;44.73;;;15.47;;
13432;SDS011;6789;47.678;9.158;2024-01-11T00:46:53;33.43;;;14.53;;
13432;SDS011;6789;47.678;9.158;2024-01-11T00:51:47;37.93;;;15.53;;
13432;SDS011;6789;47.678;9.158;2024-01-11T00:56:39;34.70;;;14.27;;
13432;SDS011;6789;47.678;9.158;2024-01-11T01:01:30;32.50;;;14.03;;
13432;SDS011;6789;47.678;9.158;2024-01-11T01:06:22;32.53;;;13.53;;
13432;SDS011;6789;47.678;9.158;2024-01-11T01:11:14;34.90;;;13.63;;
13432;SDS011;6789;47.678;9.158;2024-01-11T01:16:06;35.40;;;14.20;;
13432;SDS011;6789;47.678;9.158;2024-01-11T01:20:57;33.47;;;13.97;;
13432;SDS011;6789;47.678;9.158;2024-01-11T01:25:49;33.13;;;13.47;;
13432;SDS011;6789;47.678;9.158;2024-01-11T01:30:41;34.80;;;14.67;;
13432;SDS011;6789;47.678;9.158;2024-01-11T01:35:33;34.37;;;14.03;;
13432;SDS011;6789;47.678;9.158;2024-01-11T01:40:26;37.20;;;15.40;;
13432;SDS011;6789;47.678;9.158;2024-01-11T01:45:18;35.73;;;14.97;;
13432;SDS011;6789;47.678;9.158;2024-01-11T01:50:10;36.50;;;16.40;;
13432;SDS011;6789;47.678;9.158;2024-01-11T01:55:03;39.27;;;16.80;;
13432;SDS011;6789;47.678;9.158;2024-01-11T01:59:57;40.57;;;17.03;;
13432;SDS011;6789;47.678;9.158;2024-01-11T02:04:50;45.27;;;16.60;;
13432;SDS011;6789;47.678;9.158;2024-01-11T02:09:42;42.47;;;17.20;;
13432;SDS011;6789;47.678;9.158;2024-01-11T02:14:35;40.17;;;17.60;;
13432;SDS011;6789;47.678;9.158;2024-01-11T02:19:29;47.90;;;17.87;;
13432;SDS011;6789;47.678;9.158;2024-01-11T02:24:21;45.53;;;16.70;;
13432;SDS011;6789;47.678;9.158;2024-01-11T02:29:12;46.73;;;19.30;;
13432;SDS011;6789;47.678;9.158;2024-01-11T02:34:05;45.30;;;19.03;;
13432;SDS011;6789;47.678;9.158;2024-01-11T02:38:57;44.50;;;19.00;;
13432;SDS011;6789;47.678;9.158;2024-01-11T02:43:49;48.27;;;19.47;;
13432;SDS011;6789;47.678;9.158;2024-01-11T02:48:43;44.90;;;18.90;;
13432;SDS011;6789;47.678;9.158;2024-01-11T02:53:35;44.47;;;18.13;;
13432;SDS011;6789;47.678;9.158;2024-01-11T02:58:27;43.87;;;18.90;;
13432;SDS011;6789;47.678;9.158;2024-01-11T03:03:19;43.03;;;19.20;;
13432;SDS011;6789;47.678;9.158;2024-01-11T03:08:11;53.33;;;21.20;;
13432;SDS011;6789;47.678;9.158;2024-01-11T03:13:03;47.00;;;20.20;;
13432;SDS011;6789;47.678;9.158;2024-01-11T03:17:54;48.27;;;19.07;;
13432;SDS011;6789;47.678;9.158;2024-01-11T03:22:46;49.07;;;19.50;;
13432;SDS011;6789;47.678;9.158;2024-01-11T03:27:38;45.50;;;19.53;;
13432;SDS011;6789;47.678;9.158;2024-01-11T03:32:30;48.33;;;20.57;;
13432;SDS011;6789;47.678;9.158;2024-01-11T03:37:22;54.70;;;21.33;;
13432;SDS011;6789;47.678;9.158;2024-01-11T03:42:14;53.43;;;20.67;;
13432;SDS011;6789;47.678;9.158;2024-01-11T03:47:05;47.57;;;19.70;;
13432;SDS011;6789;47.678;9.158;2024-01-11T03:51:57;49.60;;;20.60;;
13432;SDS011;6789;47.678;9.158;2024-01-11T03:56:49;54.97;;;21.63;;
13432;SDS011;6789;47.678;9.158;2024-01-11T04:01:41;56.60;;;22.93;;
13432;SDS011;6789;47.678;9.158;2024-01-11T04:06:33;55.43;;;21.53;;
13432;SDS011;6789;47.678;9.158;2024-01-11T04:11:28;60.90;;;20.70;;
13432;SDS011;6789;47.678;9.158;2024-01-11T04:16:20;60.10;;;20.57;;
13432;SDS011;6789;47.678;9.158;2024-01-11T04:21:22;54.33;;;22.53;;
13432;SDS011;6789;47.678;9.158;2024-01-11T04:26:15;57.20;;;21.47;;
13432;SDS011;6789;47.678;9.158;2024-01-11T04:31:08;57.20;;;22.30;;
13432;SDS011;6789;47.678;9.158;2024-01-11T04:36:00;52.73;;;21.13;;
13432;SDS011;6789;47.678;9.158;2024-01-11T04:40:51;52.40;;;21.50;;
13432;SDS011;6789;47.678;9.158;2024-01-11T04:45:43;53.27;;;21.23;;
13432;SDS011;6789;47.678;9.158;2024-01-11T04:50:35;49.83;;;20.73;;
13432;SDS011;6789;47.678;9.158;2024-01-11T04:55:27;51.87;;;21.63;;
13432;SDS011;6789;47.678;9.158;2024-01-11T05:00:18;54.93;;;21.03;;
13432;SDS011;6789;47.678;9.158;2024-01-11T05:05:39;57.80;;;22.77;;
13432;SDS011;6789;47.678;9.158;2024-01-11T05:10:31;56.90;;;22.90;;
13432;SDS011;6789;47.678;9.158;2024-01-11T05:15:23;53.30;;;21.10;;
13432;SDS011;6789;47.678;9.158;2024-01-11T05:20:15;59.27;;;22.70;;
13432;SDS011;6789;47.678;9.158;2024-01-11T05:25:07;57.97;;;21.97;;
13432;SDS011;6789;47.678;9.158;2024-01-11T05:29:59;53.90;;;21.27;;
13432;SDS011;6789;47.678;9.158;2024-01-11T05:34:51;58.53;;;21.03;;
13432;SDS011;6789;47.678;9.158;2024-01-11T05:39:42;46.43;;;18.80;;
13432;SDS011;6789;47.678;9.158;2024-01-11T05:44:34;53.43;;;20.10;;
13432;SDS011;6789;47.678;9.158;2024-01-11T05:49:26;57.00;;;20.80;;
13432;SDS011;6789;47.678;9.158;2024-01-11T05:54:18;56.73;;;21.43;;
13432;SDS011;6789;47.678;9.158;2024-01-11T05:59:09;54.20;;;21.17;;
13432;SDS011;6789;47.678;9.158;2024-01-11T06:04:01;52.33;;;21.47;;
13432;SDS011;6789;47.678;9.158;2024-01-11T06:08:53;55.17;;;21.17;;
13432;SDS011;6789;47.678;9.158;2024-01-11T06:13:45;51.17;;;19.87;;
13432;SDS011;6789;47.678;9.158;2024-01-11T06:18:37;53.70;;;19.60;;
13432;SDS011;6789;47.678;9.158;2024-01-11T06:23:29;49.60;;;18.13;;
13432;SDS011;6789;47.678;9.158;2024-01-11T06:28:20;48.80;;;18.03;;
13432;SDS011;6789;47.678;9.158;2024-01-11T06:33:16;55.67;;;22.03;;
13432;SDS011;6789;47.678;9.158;2024-01-11T06:38:08;55.60;;;22.30;;
13432;SDS011;6789;47.678;9.158;2024-01-11T06:43:00;57.57;;;20.60;;
13432;SDS011;6789;47.678;9.158;2024-01-11T06:47:52;53.63;;;20.23;;
13432;SDS011;6789;47.678;9.158;2024-01-11T06:52:44;54.77;;;20.57;;
13432;SDS011;6789;47.678;9.158;2024-01-11T06:57:36;49.53;;;21.23;;
13432;SDS011;6789;47.678;9.158;2024-01-11T07:02:27;58.57;;;22.20;;
13432;SDS011;6789;47.678;9.158;2024-01-11T07:07:19;51.17;;;21.07;;
13432;SDS011;6789;47.678;9.158;2024-01-11T07:12:11;55.53;;;20.67;;
13432;SDS011;6789;47.678;9.158;2024-01-11T07:17:03;54.87;;;19.10;;
13432;SDS011;6789;47.678;9.158;2024-01-11T07:21:55;52.90;;;18.63;;
13432;SDS011;6789;47.678;9.158;2024-01-11T07:26:47;52.90;;;19.37;;
13432;SDS011;6789;47.678;9.158;2024-01-11T07:31:39;47.93;;;19.40;;
13432;SDS011;6789;47.678;9.158;2024-01-11T07:36:31;48.40;;;18.20;;
13432;SDS011;6789;47.678;9.158;2024-01-11T07:41:22;53.63;;;19.37;;
13432;SDS011;6789;47.678;9.158;2024-01-11T07:46:14;50.30;;;18.77;;
13432;SDS011;6789;47.678;9.158;2024-01-11T07:51:06;49.13;;;19.27;;
13432;SDS011;6789;47.678;9.158;2024-01-11T07:55:58;53.17;;;19.13;;
13432;SDS011;6789;47.678;9.158;2024-01-11T08:00:50;50.37;;;18.03;;
13432;SDS011;6789;47.678;9.158;2024-01-11T08:05:43;49.60;;;18.20;;
13432;SDS011;6789;47.678;9.158;2024-01-11T08:10:35;54.07;;;21.77;;
13432;SDS011;6789;47.678;9.158;2024-01-11T08:15:27;47.23;;;17.53;;
13432;SDS011;6789;47.678;9.158;2024-01-11T08:20:19;48.70;;;19.20;;
13432;SDS011;6789;47.678;9.158;2024-01-11T08:25:11;50.17;;;17.77;;
13432;SDS011;6789;47.678;9.158;2024-01-11T08:30:04;43.20;;;17.33;;
13432;SDS011;6789;47.678;9.158;2024-01-11T08:34:57;45.57;;;18.00;;
13432;SDS011;6789;47.678;9.158;2024-01-11T08:39:49;40.80;;;16.83;;
13432;SDS011;6789;47.678;9.158;2024-01-11T08:44:42;42.50;;;16.33;;
13432;SDS011;6789;47.678;9.158;2024-01-11T08:49:35;45.33;;;18.43;;
13432;SDS011;6789;47.678;9.158;2024-01-11T08:54:30;47.07;;;18.53;;
13432;SDS011;6789;47.678;9.158;2024-01-11T08:59:23;46.93;;;16.97;;
13432;SDS011;6789;47.678;9.158;2024-01-11T09:04:16;45.30;;;17.83;;
13432;SDS011;6789;47.678;9.158;2024-01-11T09:09:10;43.87;;;15.77;;
13432;SDS011;6789;47.678;9.158;2024-01-11T09:14:05;50.53;;;18.30;;
13432;SDS011;6789;47.678;9.158;2024-01-11T09:18:58;47.40;;;19.57;;
13432;SDS011;6789;47.678;9.158;2024-01-11T09:23:53;43.67;;;16.50;;
13432;SDS011;6789;47.678;9.158;2024-01-11T09:28:45;49.40;;;18.17;;
13432;SDS011;6789;47.678;9.158;2024-01-11T09:33:37;43.23;;;17.30;;
13432;SDS011;6789;47.678;9.158;2024-01-11T09:38:29;43.47;;;17.80;;
13432;SDS011;6789;47.678;9.158;2024-01-11T09:43:21;48.50;;;17.80;;
13432;SDS011;6789;47.678;9.158;2024-01-11T09:48:13;46.13;;;15.73;;
13432;SDS011;6789;47.678;9.158;2024-01-11T09:53:06;38.10;;;15.80;;
13432;SDS011;6789;47.678;9.158;2024-01-11T09:57:59;37.33;;;15.97;;
13432;SDS011;6789;47.678;9.158;2024-01-11T10:02:51;44.87;;;15.37;;
13432;SDS011;6789;47.678;9.158;2024-01-11T10:07:44;44.30;;;17.13;;
13432;SDS011;6789;47.678;9.158;2024-01-11T10:12:39;42.60;;;14.47;;
13432;SDS011;6789;47.678;9.158;2024-01-11T10:17:32;40.27;;;15.50;;
13432;SDS011;6789;47.678;9.158;2024-01-11T10:22:24;38.17;;;16.13;;
13432;SDS011;6789;47.678;9.158;2024-01-11T10:27:17;39.57;;;14.87;;
13432;SDS011;6789;47.678;9.158;2024-01-11T10:32:09;49.70;;;18.50;;
13432;SDS011;6789;47.678;9.158;2024-01-11T10:37:01;41.83;;;15.43;;
13432;SDS011;6789;47.678;9.158;2024-01-11T10:42:06;43.00;;;16.73;;
13432;SDS011;6789;47.678;9.158;2024-01-11T10:47:02;38.53;;;15.63;;
13432;SDS011;6789;47.678;9.158;2024-01-11T10:51:59;40.80;;;15.33;;
13432;SDS011;6789;47.678;9.158;2024-01-11T10:56:54;43.13;;;15.13;;
13432;SDS011;6789;47.678;9.158;2024-01-11T11:01:52;40.67;;;15.17;;
13432;SDS011;6789;47.678;9.158;2024-01-11T11:06:46;35.17;;;14.13;;
13432;SDS011;6789;47.678;9.158;2024-01-11T11:11:48;39.13;;;15.47;;
13432;SDS011;6789;47.678;9.158;2024-01-11T11:21:47;36.40;;;13.40;;
13432;SDS011;6789;47.678;9.158;2024-01-11T11:26:43;38.70;;;14.40;;
13432;SDS011;6789;47.678;9.158;2024-01-11T11:32:39;34.87;;;13.87;;
13432;SDS011;6789;47.678;9.158;2024-01-11T11:37:41;36.07;;;12.77;;
13432;SDS011;6789;47.678;9.158;2024-01-11T11:42:34;32.13;;;11.67;;
13432;SDS011;6789;47.678;9.158;2024-01-11T11:47:33;35.23;;;12.77;;
13432;SDS011;6789;47.678;9.158;2024-01-11T11:52:28;37.13;;;13.87;;
13432;SDS011;6789;47.678;9.158;2024-01-11T11:57:23;32.87;;;12.97;;
13432;SDS011;6789;47.678;9.158;2024-01-11T12:02:16;37.60;;;13.00;;
13432;SDS011;6789;47.678;9.158;2024-01-11T12:07:12;29.10;;;11.53;;
13432;SDS011;6789;47.678;9.158;2024-01-11T12:12:04;24.93;;;10.93;;
13432;SDS011;6789;47.678;9.158;2024-01-11T12:17:06;26.97;;;11.03;;
13432;SDS011;6789;47.678;9.158;2024-01-11T12:21:58;27.90;;;10.87;;
13432;SDS011;6789;47.678;9.158;2024-01-11T12:26:50;26.50;;;10.57;;
13432;SDS011;6789;47.678;9.158;2024-01-11T12:31:45;21.80;;;10.07;;
13432;SDS011;6789;47.678;9.158;2024-01-11T12:36:56;26.23;;;10.23;;
13432;SDS011;6789;47.678;9.158;2024-01-11T12:41:52;24.43;;;9.90;;
13432;SDS011;6789;47.678;9.158;2024-01-11T12:46:48;25.73;;;10.17;;
13432;SDS011;6789;47.678;9.158;2024-01-11T12:51:40;23.27;;;10.37;;
13432;SDS011;6789;47.678;9.158;2024-01-11T12:56:32;21.77;;;9.30;;
13432;SDS011;6789;47.678;9.158;2024-01-11T13:01:24;24.50;;;10.90;;
13432;SDS011;6789;47.678;9.158;2024-01-11T13:06:15;27.50;;;12.20;;
13432;SDS011;6789;47.678;9.158;2024-01-11T13:11:09;26.60;;;11.43;;
13432;SDS011;6789;47.678;9.158;2024-01-11T13:16:03;26.77;;;11.97;;
13432;SDS011;6789;47.678;9.158;2024-01-11T13:21:02;29.60;;;12.17;;
13432;SDS011;6789;47.678;9.158;2024-01-11T13:25:54;26.07;;;11.47;;
13432;SDS011;6789;47.678;9.158;2024-01-11T13:30:46;32.57;;;12.03;;
13432;SDS011;6789;47.678;9.158;2024-01-11T13:35:39;30.73;;;12.10;;
13432;SDS011;6789;47.678;9.158;2024-01-11T13:40:34;27.57;;;10.97;;
13432;SDS011;6789;47.678;9.158;2024-01-11T13:45:26;24.93;;;10.07;;
13432;SDS011;6789;47.678;9.158;2024-01-11T13:50:19;34.07;;;11.33;;
13432;SDS011;6789;47.678;9.158;2024-01-11T13:55:15;28.53;;;12.10;;
13432;SDS011;6789;47.678;9.158;2024-01-11T14:00:09;33.53;;;12.10;;
13432;SDS011;6789;47.678;9.158;2024-01-11T14:05:02;28.03;;;10.63;;
13432;SDS011;6789;47.678;9.158;2024-01-11T14:09:56;27.33;;;11.23;;
13432;SDS011;6789;47.678;9.158;2024-01-11T14:14:47;27.97;;;11.23;;
13432;SDS011;6789;47.678;9.158;2024-01-11T14:19:39;31.90;;;10.70;;
13432;SDS011;6789;47.678;9.158;2024-01-11T14:24:31;26.93;;;11.00;;
13432;SDS011;6789;47.678;9.158;2024-01-11T14:29:27;32.80;;;12.63;;
13432;SDS011;6789;47.678;9.158;2024-01-11T14:34:18;26.17;;;12.00;;
13432;SDS011;6789;47.678;9.158;2024-01-11T14:39:10;35.40;;;12.53;;
13432;SDS011;6789;47.678;9.158;2024-01-11T14:44:02;27.67;;;11.47;;
13432;SDS011;6789;47.678;9.158;2024-01-11T14:48:54;28.10;;;11.63;;
13432;SDS011;6789;47.678;9.158;2024-01-11T14:53:46;27.53;;;10.37;;
13432;SDS011;6789;47.678;9.158;2024-01-11T14:58:38;29.10;;;11.87;;
13432;SDS011;6789;47.678;9.158;2024-01-11T15:03:30;28.90;;;11.83;;
13432;SDS011;6789;47.678;9.158;2024-01-11T15:08:22;33.83;;;12.13;;
13432;SDS011;6789;47.678;9.158;2024-01-11T15:13:14;29.50;;;12.90;;
13432;SDS011;6789;47.678;9.158;2024-01-11T15:18:06;31.03;;;13.17;;
13432;SDS011;6789;47.678;9.158;2024-01-11T15:22:58;34.27;;;12.93;;
13432;SDS011;6789;47.678;9.158;2024-01-11T15:27:50;32.13;;;12.30;;
13432;SDS011;6789;47.678;9.158;2024-01-11T15:32:42;33.90;;;12.37;;
13432;SDS011;6789;47.678;9.158;2024-01-11T15:37:35;32.03;;;11.63;;
13432;SDS011;6789;47.678;9.158;2024-01-11T15:42:27;35.80;;;12.40;;
13432;SDS011;6789;47.678;9.158;2024-01-11T15:47:18;32.63;;;13.90;;
13432;SDS011;6789;47.678;9.158;2024-01-11T15:52:10;41.33;;;15.07;;
13432;SDS011;6789;47.678;9.158;2024-01-11T15:57:02;35.53;;;12.97;;
13432;SDS011;6789;47.678;9.158;2024-01-11T16:01:58;39.20;;;14.07;;
13432;SDS011;6789;47.678;9.158;2024-01-11T16:06:57;38.47;;;13.70;;
13432;SDS011;6789;47.678;9.158;2024-01-11T16:11:49;32.97;;;13.47;;
13432;SDS011;6789;47.678;9.158;2024-01-11T16:16:42;33.27;;;12.93;;
13432;SDS011;6789;47.678;9.158;2024-01-11T16:21:35;38.17;;;13.77;;
13432;SDS011;6789;47.678;9.158;2024-01-11T16:26:27;32.73;;;12.90;;
13432;SDS011;6789;47.678;9.158;2024-01-11T16:31:19;47.93;;;15.73;;
13432;SDS011;6789;47.678;9.158;2024-01-11T16:36:11;43.20;;;16.07;;
13432;SDS011;6789;47.678;9.158;2024-01-11T16:41:09;50.57;;;17.00;;
13432;SDS011;6789;47.678;9.158;2024-01-11T16:46:02;42.83;;;16.80;;
13432;SDS011;6789;47.678;9.158;2024-01-11T16:50:55;47.63;;;16.33;;
13432;SDS011;6789;47.678;9.158;2024-01-11T16:55:47;47.70;;;18.20;;
13432;SDS011;6789;47.678;9.158;2024-01-11T17:00:39;52.10;;;19.33;;
13432;SDS011;6789;47.678;9.158;2024-01-11T17:05:33;48.33;;;17.13;;
13432;SDS011;6789;47.678;9.158;2024-01-11T17:11:02;47.17;;;17.03;;
13432;SDS011;6789;47.678;9.158;2024-01-11T17:15:54;48.70;;;18.47;;
13432;SDS011;6789;47.678;9.158;2024-01-11T17:20:46;47.63;;;18.23;;
13432;SDS011;6789;47.678;9.158;2024-01-11T17:25:38;49.63;;;17.00;;
13432;SDS011;6789;47.678;9.158;2024-01-11T17:30:29;54.90;;;17.37;;
13432;SDS011;6789;47.678;9.158;2024-01-11T17:35:21;53.73;;;18.47;;
13432;SDS011;6789;47.678;9.158;2024-01-11T17:40:14;50.80;;;18.50;;
13432;SDS011;6789;47.678;9.158;2024-01-11T17:45:05;48.57;;;19.00;;
13432;SDS011;6789;47.678;9.158;2024-01-11T17:49:58;48.47;;;17.87;;
13432;SDS011;6789;47.678;9.158;2024-01-11T17:54:49;47.63;;;16.67;;
13432;SDS011;6789;47.678;9.158;2024-01-11T17:59:44;50.37;;;17.57;;
13432;SDS011;6789;47.678;9.158;2024-01-11T18:04:36;53.37;;;17.87;;
13432;SDS011;6789;47.678;9.158;2024-01-11T18:09:28;50.00;;;18.83;;
13432;SDS011;6789;47.678;9.158;2024-01-11T18:14:20;48.67;;;17.63;;
13432;SDS011;6789;47.678;9.158;2024-01-11T18:19:12;47.30;;;16.97;;
13432;SDS011;6789;47.678;9.158;2024-01-11T18:24:05;49.53;;;17.53;;
13432;SDS011;6789;47.678;9.158;2024-01-11T18:28:57;55.60;;;18.23;;
13432;SDS011;6789;47.678;9.158;2024-01-11T18:33:49;54.33;;;18.93;;
13432;SDS011;6789;47.678;9.158;2024-01-11T18:38:43;53.40;;;18.80;;
13432;SDS011;6789;47.678;9.158;2024-01-11T18:43:35;54.87;;;19.20;;
13432;SDS011;6789;47.678;9.158;2024-01-11T18:48:26;62.30;;;20.87;;
13432;SDS011;6789;47.678;9.158;2024-01-11T18:53:18;59.63;;;20.63;;
13432;SDS011;6789;47.678;9.158;2024-01-11T18:58:12;54.13;;;20.17;;
13432;SDS011;6789;47.678;9.158;2024-01-11T19:03:05;49.67;;;18.43;;
13432;SDS011;6789;47.678;9.158;2024-01-11T19:07:57;56.20;;;18.83;;
13432;SDS011;6789;47.678;9.158;2024-01-11T19:12:50;56.20;;;19.87;;
13432;SDS011;6789;47.678;9.158;2024-01-11T19:17:41;54.43;;;18.57;;
13432;SDS011;6789;47.678;9.158;2024-01-11T19:22:33;55.73;;;20.17;;
13432;SDS011;6789;47.678;9.158;2024-01-11T19:27:25;56.10;;;19.67;;
13432;SDS011;6789;47.678;9.158;2024-01-11T19:32:17;53.93;;;19.47;;
13432;SDS011;6789;47.678;9.158;2024-01-11T19:37:09;56.63;;;19.77;;
13432;SDS011;6789;47.678;9.158;2024-01-11T19:42:04;53.17;;;20.10;;
13432;SDS011;6789;47.678;9.158;2024-01-11T19:46:56;57.57;;;21.40;;
13432;SDS011;6789;47.678;9.158;2024-01-11T19:51:47;51.13;;;19.57;;
13432;SDS011;6789;47.678;9.158;2024-01-11T19:56:39;53.77;;;19.90;;
13432;SDS011;6789;47.678;9.158;2024-01-11T20:01:31;60.37;;;20.67;;
13432;SDS011;6789;47.678;9.158;2024-01-11T20:06:23;63.07;;;20.90;;
13432;SDS011;6789;47.678;9.158;2024-01-11T20:11:15;54.03;;;19.77;;
13432;SDS011;6789;47.678;9.158;2024-01-11T20:16:07;60.10;;;22.20;;
13432;SDS011;6789;47.678;9.158;2024-01-11T20:21:00;48.60;;;19.53;;
13432;SDS011;6789;47.678;9.158;2024-01-11T20:25:53;62.53;;;21.60;;
13432;SDS011;6789;47.678;9.158;2024-01-11T20:30:45;66.90;;;22.47;;
13432;SDS011;6789;47.678;9.158;2024-01-11T20:35:39;65.63;;;21.90;;
13432;SDS011;6789;47.678;9.158;2024-01-11T20:40:31;60.20;;;22.33;;
13432;SDS011;6789;47.678;9.158;2024-01-11T20:45:22;58.27;;;21.57;;
13432;SDS011;6789;47.678;9.158;2024-01-11T20:50:14;63.80;;;21.63;;
13432;SDS011;6789;47.678;9.158;2024-01-11T20:55:06;63.53;;;22.50;;
13432;SDS011;6789;47.678;9.158;2024-01-11T20:59:58;61.30;;;22.73;;
13432;SDS011;6789;47.678;9.158;2024-01-11T21:04:50;65.33;;;24.10;;
13432;SDS011;6789;47.678;9.158;2024-01-11T21:09:42;67.73;;;25.00;;
13432;SDS011;6789;47.678;9.158;2024-01-11T21:14:35;77.47;;;25.00;;
13432;SDS011;6789;47.678;9.158;2024-01-11T21:19:27;64.47;;;24.13;;
13432;SDS011;6789;47.678;9.158;2024-01-11T21:24:19;63.47;;;24.20;;
13432;SDS011;6789;47.678;9.158;2024-01-11T21:29:11;66.90;;;23.77;;
13432;SDS011;6789;47.678;9.158;2024-01-11T21:34:03;64.17;;;24.07;;
13432;SDS011;6789;47.678;9.158;2024-01-11T21:38:56;73.87;;;26.47;;
13432;SDS011;6789;47.678;9.158;2024-01-11T21:43:49;72.53;;;25.00;;
13432;SDS011;6789;47.678;9.158;2024-01-11T21:48:42;72.27;;;24.43;;
13432;SDS011;6789;47.678;9.158;2024-01-11T21:53:35;63.93;;;25.33;;
13432;SDS011;6789;47.678;9.158;2024-01-11T21:58:27;68.87;;;26.47;;
13432;SDS011;6789;47.678;9.158;2024-01-11T22:03:21;69.53;;;24.27;;
13432;SDS011;6789;47.678;9.158;2024-01-11T22:08:15;66.90;;;24.80;;
13432;SDS011;6789;47.678;9.158;2024-01-11T22:13:07;70.43;;;25.30;;
13432;SDS011;6789;47.678;9.158;2024-01-11T22:17:59;68.27;;;24.97;;
13432;SDS011;6789;47.678;9.158;2024-01-11T22:22:51;72.47;;;26.47;;
13432;SDS011;6789;47.678;9.158;2024-01-11T22:27:43;74.27;;;26.80;;
13432;SDS011;6789;47.678;9.158;2024-01-11T22:32:37;68.23;;;25.20;;
13432;SDS011;6789;47.678;9.158;2024-01-11T22:37:29;71.60;;;25.83;;
13432;SDS011;6789;47.678;9.158;2024-01-11T22:42:21;66.97;;;25.13;;
13432;SDS011;6789;47.678;9.158;2024-01-11T22:47:13;61.80;;;24.10;;
13432;SDS011;6789;47.678;9.158;2024-01-11T22:52:05;69.23;;;25.83;;
13432;SDS011;6789;47.678;9.158;2024-01-11T22:56:57;69.87;;;25.87;;
13432;SDS011;6789;47.678;9.158;2024-01-11T23:01:49;70.50;;;24.83;;
13432;SDS011;6789;47.678;9.158;2024-01-11T23:06:47;68.33;;;25.60;;
13432;SDS011;6789;47.678;9.158;2024-01-11T23:12:15;65.50;;;23.67;;
13432;SDS011;6789;47.678;9.158;2024-01-11T23:17:09;59.37;;;23.47;;
13432;SDS011;6789;47.678;9.158;2024-01-11T23:22:01;63.80;;;24.07;;
13432;SDS011;6789;47.678;9.158;2024-01-11T23:26:52;72.73;;;25.67;;
13432;SDS011;6789;47.678;9.158;2024-01-11T23:31:45;65.63;;;24.50;;
13432;SDS011;6789;47.678;9.158;2024-01-11T23:36:39;65.97;;;23.67;;
13432;SDS011;6789;47.678;9.158;2024-01-11T23:41:31;64.97;;;22.50;;
13432;SDS011;6789;47.678;9.158;2024-01-11T23:46:22;59.93;;;21.97;;
13432;SDS011;6789;47.678;9.158;2024-01-11T23:51:14;60.10;;;22.57;;
13432;SDS011;6789;47.678;9.158;2024-01-11T23:56:06;62.23;;;23.03;;
